Time;durP1;ratioP1;P1;durP2;ratioP2;P2;SDS_P1;SDS_P2;PMS_P1;PMS_P2;Temp;Humidity;BMP_temperature;BMP_pressure;BME280_temperature;BME280_humidity;BME280_pressure;Samples;Min_cycle;Max_cycle;Signal;HPM_P1;HPM_P2
2023/01/12 00:27:00;;;;;;;;;1.00;1.00;;;;;7.72;92.04;100836.72;4888546;29;45330;-94
2023/01/12 00:29:27;;;;;;;;;4.75;1.50;;;;;7.99;91.73;100887.50;4879453;29;45238;-95
2023/01/12 00:31:57;;;;;;;;;1.50;0.50;;;;;7.36;91.99;100753.56;4890607;29;46960;-94
2023/01/12 00:34:26;;;;;;;;;1.00;1.00;;;;;7.55;92.28;100802.59;4879969;29;45355;-94
2023/01/12 00:36:55;;;;;;;;;3.00;1.00;;;;;7.25;92.29;100727.31;4874732;29;45255;-94
2023/01/12 00:39:25;;;;;;;;;3.25;2.00;;;;;8.06;91.87;100864.63;4875531;29;44916;-95
2023/01/12 00:47:37;;;;;;;;;2.00;1.00;;;;;9.26;92.26;101069.50;4893680;29;45160;-94
2023/01/12 01:00:04;;;;;;;;;2.00;0.00;;;;;9.27;91.37;101010.59;4842462;29;44600;-94
2023/01/12 01:06:37;;;;;;;;;1.00;1.00;;;;;7.92;91.15;100801.53;4839009;29;45278;-95
2023/01/12 01:12:54;;;;;;;;;2.50;1.50;;;;;7.35;91.75;100699.22;4841543;29;44852;-95
2023/01/12 01:19:15;;;;;;;;;2.25;2.00;;;;;6.66;91.39;100582.97;4838917;29;45328;-95
2023/01/12 01:25:16;;;;;;;;;1.50;1.50;;;;;8.04;91.39;100793.56;4885269;29;44789;-94
2023/01/12 01:27:42;;;;;;;;;2.00;2.00;;;;;7.66;91.77;100747.28;4842631;29;45293;-94
2023/01/12 01:33:22;;;;;;;;;1.50;1.00;;;;;7.93;91.22;100783.09;4844122;29;45198;-94
2023/01/12 01:35:50;;;;;;;;;1.50;1.00;;;;;8.74;91.68;100924.88;4844156;29;45038;-95
2023/01/12 01:38:19;;;;;;;;;3.75;1.00;;;;;6.46;91.20;100548.91;4847760;29;45002;-96
2023/01/12 01:48:20;;;;;;;;;4.25;2.75;;;;;6.24;91.54;100532.38;4803150;29;45456;-95
2023/01/12 01:51:29;;;;;;;;;;;;;;;;;;;;;
2023/01/12 02:00:19;;;;;;;;;1.75;1.75;;;;;6.27;91.25;100510.47;4819742;29;45444;-94
2023/01/12 02:06:13;;;;;;;;;2.00;0.75;;;;;7.04;91.86;100637.13;4824254;29;44990;-94
2023/01/12 02:09:00;;;;;;;;;2.25;2.25;;;;;8.81;92.37;100947.66;4833192;29;45028;-94
2023/01/12 02:17:42;;;;;;;;;4.00;2.00;;;;;9.19;91.88;101008.03;4773073;29;45381;-93
2023/01/12 02:20:50;;;;;;;;;3.50;1.00;;;;;9.20;92.01;100990.44;4795607;29;45333;-94
2023/01/12 02:23:18;;;;;;;;;0.00;0.00;;;;;9.22;91.85;100980.75;4861087;29;44756;-94
2023/01/12 02:26:15;;;;;;;;;2.50;2.00;;;;;9.24;91.96;100984.25;4858177;29;44821;-95
2023/01/12 02:29:06;;;;;;;;;3.75;1.00;;;;;9.26;91.48;100982.47;4858469;29;47038;-94
2023/01/12 02:32:00;;;;;;;;;2.25;1.75;;;;;9.27;91.90;100989.50;4839773;29;44770;-94
2023/01/12 02:35:02;;;;;;;;;5.00;2.00;;;;;9.26;91.82;100977.19;4821341;29;44926;-95
2023/01/12 02:38:05;;;;;;;;;2.00;2.00;;;;;9.28;91.99;100972.78;4833337;29;45284;-94
2023/01/12 02:40:53;;;;;;;;;0.50;0.00;;;;;9.31;91.72;100964.84;4837300;29;46890;-94
2023/01/12 02:43:50;;;;;;;;;3.00;2.00;;;;;7.09;91.35;100587.16;4836143;29;45283;-93
2023/01/12 02:46:27;;;;;;;;;0.75;0.75;;;;;7.70;91.31;100674.47;4835650;29;44827;-95
2023/01/12 02:49:11;;;;;;;;;1.50;1.00;;;;;9.32;91.41;100940.22;4850758;29;44903;-95
2023/01/12 02:51:53;;;;;;;;;2.00;2.00;;;;;6.69;91.49;100503.31;4838692;29;45241;-94
2023/01/12 02:54:22;;;;;;;;;3.00;2.00;;;;;9.36;91.56;100948.97;4819982;29;45236;-95
2023/01/12 02:57:04;;;;;;;;;1.75;0.00;;;;;6.67;91.77;100476.19;4825793;29;45319;-94
2023/01/12 02:59:52;;;;;;;;;;;;;;;;;;;;;
2023/01/12 03:02:38;;;;;;;;;0.75;0.75;;;;;9.42;91.34;100949.78;4826609;29;75946;-95
2023/01/12 03:05:05;;;;;;;;;4.00;1.75;;;;;7.40;91.37;100603.63;4828034;29;45299;-95
2023/01/12 03:08:00;;;;;;;;;2.50;1.00;;;;;6.66;91.06;100456.03;4814668;29;45195;-94
2023/01/12 03:10:56;;;;;;;;;2.00;1.00;;;;;9.15;91.61;100852.47;4852358;29;45726;-96
2023/01/12 03:13:27;;;;;;;;;1.25;1.25;;;;;9.46;91.79;100921.63;4878851;29;45306;-95
2023/01/12 03:16:16;;;;;;;;;1.75;1.75;;;;;7.86;91.27;100639.25;4861708;29;44876;-96
2023/01/12 03:19:04;;;;;;;;;1.00;1.00;;;;;8.82;91.34;100785.97;4875421;29;45378;-95
2023/01/12 03:21:47;;;;;;;;;0.50;0.50;;;;;6.57;91.34;100415.84;4839977;29;45487;-95
2023/01/12 03:24:33;;;;;;;;;1.25;1.25;;;;;7.76;91.46;100611.31;4863423;29;45217;-94
2023/01/12 03:27:23;;;;;;;;;;;;;;;;;;;;;
2023/01/12 03:30:13;;;;;;;;;4.75;1.50;;;;;9.52;92.22;100894.28;4873799;29;45391;-95
2023/01/12 03:32:46;;;;;;;;;0.75;0.75;;;;;9.51;92.19;100871.44;4852805;29;45482;-96
2023/01/12 03:35:15;;;;;;;;;2.00;1.00;;;;;6.61;91.91;100403.53;4860979;29;47612;-94
2023/01/12 03:37:56;;;;;;;;;1.25;1.25;;;;;7.40;91.97;100543.16;4878935;28;44721;-95
2023/01/12 03:40:44;;;;;;;;;0.75;0.75;;;;;9.48;91.75;100882.03;4847722;29;45392;-95
2023/01/12 03:43:28;;;;;;;;;0.50;0.50;;;;;8.20;92.00;100678.50;4855520;29;45488;-95
2023/01/12 03:46:03;;;;;;;;;1.50;0.25;;;;;6.11;92.23;100304.97;4871513;29;45249;-95
2023/01/12 03:49:07;;;;;;;;;1.00;0.75;;;;;7.87;92.13;100619.09;4843169;29;44638;-95
2023/01/12 03:51:58;;;;;;;;;1.00;1.00;;;;;9.47;91.89;100867.09;4856150;29;45385;-96
2023/01/12 03:54:48;;;;;;;;;4.25;3.25;;;;;9.45;92.52;100858.31;4860248;29;44957;-94
2023/01/12 03:57:21;;;;;;;;;4.00;0.75;;;;;8.40;92.63;100693.25;4884343;29;45094;-93
2023/01/12 03:59:48;;;;;;;;;1.75;1.75;;;;;7.80;92.47;100581.44;4878332;29;44846;-94
2023/01/12 04:02:19;;;;;;;;;1.25;1.00;;;;;8.83;92.49;100740.28;4865057;29;44639;-95
2023/01/12 04:04:50;;;;;;;;;1.00;1.00;;;;;8.23;92.89;100665.31;4877004;29;45285;-94
2023/01/12 04:07:21;;;;;;;;;3.25;1.25;;;;;9.46;92.96;100831.03;4878411;29;45634;-95
2023/01/12 04:09:58;;;;;;;;;3.50;2.00;;;;;8.26;92.48;100632.78;4864621;29;44810;-95
2023/01/12 04:12:26;;;;;;;;;2.75;1.00;;;;;8.05;92.29;100581.19;4883022;28;44803;-94
2023/01/12 04:14:57;;;;;;;;;0.00;0.00;;;;;8.03;92.55;100598.78;4888547;28;44876;-95
2023/01/12 04:20:49;;;;;;;;;1.00;1.00;;;;;8.87;92.63;100718.28;4887477;28;44617;-95
2023/01/12 04:26:45;;;;;;;;;4.50;3.00;;;;;9.40;92.33;100801.19;4870426;29;45321;-94
2023/01/12 04:29:14;;;;;;;;;1.75;1.00;;;;;6.60;91.93;100327.41;4859942;29;46407;-96
2023/01/12 04:31:39;;;;;;;;;0.00;0.00;;;;;8.25;92.67;100597.69;4871109;29;45523;-94
2023/01/12 04:34:05;;;;;;;;;1.75;1.75;;;;;8.29;92.51;100601.16;4860999;29;44793;-95
2023/01/12 04:36:32;;;;;;;;;3.75;2.00;;;;;6.32;92.08;100264.59;4859593;29;45517;-96
2023/01/12 04:38:57;;;;;;;;;2.00;1.00;;;;;8.13;92.25;100568.84;4858091;29;45418;-95
2023/01/12 04:41:27;;;;;;;;;3.00;0.75;;;;;9.03;92.43;100703.16;4868760;29;45302;-95
2023/01/12 04:43:56;;;;;;;;;1.00;1.00;;;;;6.73;92.46;100326.41;4858596;29;45252;-95
2023/01/12 04:46:22;;;;;;;;;0.50;0.25;;;;;6.91;92.02;100372.69;4861699;29;45318;-96
2023/01/12 04:48:48;;;;;;;;;2.75;1.50;;;;;6.97;92.51;100382.25;4856218;29;47858;-95
2023/01/12 04:51:14;;;;;;;;;1.00;1.00;;;;;9.49;92.23;100809.88;4854251;29;44824;-95
2023/01/12 04:53:52;;;;;;;;;3.00;1.75;;;;;7.88;92.59;100528.72;4873149;29;45254;-95
2023/01/12 04:59:39;;;;;;;;;2.00;2.00;;;;;8.63;92.12;100650.91;4875044;29;45706;-95
2023/01/12 05:02:19;;;;;;;;;6.75;2.25;;;;;8.46;92.29;100616.84;4854114;29;45236;-95
2023/01/12 05:04:48;;;;;;;;;2.00;1.00;;;;;6.51;92.02;100278.44;4861173;29;45426;-96
2023/01/12 05:07:19;;;;;;;;;2.75;1.75;;;;;6.27;91.68;100227.88;4872362;29;44848;-94
2023/01/12 05:12:43;;;;;;;;;;;;;;;;;;;;;
2023/01/12 05:15:09;;;;;;;;;0.75;0.75;;;;;8.08;92.18;100494.31;4870205;29;67926;-95
2023/01/12 05:17:43;;;;;;;;;1.00;0.75;;;;;8.55;92.15;100577.22;4855328;29;45170;-94
2023/01/12 05:20:10;;;;;;;;;4.25;1.00;;;;;6.79;92.14;100299.19;4850462;29;47169;-94
2023/01/12 05:22:37;;;;;;;;;1.00;1.00;;;;;9.42;92.41;100749.28;4862322;29;44892;-95
2023/01/12 05:25:04;;;;;;;;;1.75;1.50;;;;;8.98;91.93;100637.31;4841355;29;45204;-95
2023/01/12 05:27:29;;;;;;;;;2.50;2.50;;;;;8.54;91.60;100567.56;4857701;29;45510;-95
2023/01/12 05:29:58;;;;;;;;;2.75;1.25;;;;;8.10;91.81;100484.63;4858754;29;47146;-94
2023/01/12 05:32:28;;;;;;;;;0.00;0.00;;;;;7.05;92.29;100315.63;4879611;29;45434;-95
2023/01/12 05:35:07;;;;;;;;;1.00;1.00;;;;;8.11;92.29;100483.75;4870678;29;44718;-95
2023/01/12 05:37:43;;;;;;;;;1.50;1.50;;;;;9.76;92.28;100788.44;4838298;29;44891;-94
2023/01/12 05:40:15;;;;;;;;;3.25;1.25;;;;;8.91;92.21;100630.34;4854017;29;47104;-94
2023/01/12 05:45:33;;;;;;;;;0.25;0.25;;;;;7.22;92.16;100340.88;4861443;29;45245;-95
2023/01/12 05:48:00;;;;;;;;;1.00;0.50;;;;;8.03;92.32;100468.03;4864513;29;45006;-95
2023/01/12 05:50:29;;;;;;;;;1.00;1.00;;;;;6.70;91.48;100252.91;4880019;29;47474;-93
2023/01/12 05:52:58;;;;;;;;;3.00;1.75;;;;;9.28;92.06;100701.09;4862286;29;44626;-95
2023/01/12 05:55:32;;;;;;;;;3.75;1.75;;;;;9.21;91.72;100665.16;4859424;29;45305;-94
2023/01/12 05:58:00;;;;;;;;;3.25;1.75;;;;;9.13;92.09;100672.28;4853371;29;45307;-95
2023/01/12 06:00:58;;;;;;;;;3.25;2.00;;;;;7.84;91.69;100451.56;4871159;29;47677;-95
2023/01/12 06:03:24;;;;;;;;;2.00;1.00;;;;;8.21;92.14;100506.44;4877585;29;45374;-95
2023/01/12 06:05:54;;;;;;;;;1.00;1.00;;;;;6.66;92.40;100253.81;4860374;29;44684;-94
2023/01/12 06:08:20;;;;;;;;;3.25;1.00;;;;;8.05;92.27;100447.84;4852644;29;45524;-95
2023/01/12 06:11:04;;;;;;;;;1.00;1.00;;;;;9.88;92.47;100781.25;4865972;29;45642;-95
2023/01/12 06:13:57;;;;;;;;;1.75;1.75;;;;;8.32;92.37;100507.19;4874083;29;45435;-96
2023/01/12 06:19:59;;;;;;;;;2.00;2.00;;;;;9.21;92.41;100630.84;4883250;28;45243;-95
2023/01/12 07:38:01;;;;;;;;;2.25;2.00;;;;;9.25;94.91;100677.41;4838888;29;45490;-95
2023/01/12 07:40:32;;;;;;;;;1.00;1.00;;;;;7.60;94.53;100432.50;4837718;29;45239;-96
2023/01/12 07:43:00;;;;;;;;;3.00;0.75;;;;;7.74;94.77;100431.50;4843691;29;47625;-93
2023/01/12 07:45:26;;;;;;;;;2.00;0.00;;;;;8.24;94.46;100524.84;4831149;29;44708;-93
2023/01/12 07:47:53;;;;;;;;;1.50;0.00;;;;;9.87;94.74;100790.03;4831112;29;45254;-94
2023/01/12 07:50:20;;;;;;;;;2.25;1.25;;;;;7.83;94.36;100436.66;4849805;29;45006;-92
2023/01/12 07:52:45;;;;;;;;;2.75;1.25;;;;;7.06;94.12;100305.97;4852486;29;45468;-93
2023/01/12 07:55:11;;;;;;;;;1.50;0.50;;;;;7.37;94.11;100351.22;4813490;29;44724;-94
2023/01/12 07:57:42;;;;;;;;;2.75;1.00;;;;;8.86;94.56;100611.09;4824377;29;45347;-94
2023/01/12 08:00:10;;;;;;;;;0.00;0.00;;;;;6.83;93.84;100264.16;4826444;29;45250;-93
2023/01/12 08:02:36;;;;;;;;;1.00;1.00;;;;;9.97;94.15;100789.03;4835811;29;47215;-93
2023/01/12 08:05:02;;;;;;;;;1.50;0.25;;;;;7.75;93.87;100414.84;4845433;29;44721;-94
2023/01/12 08:07:31;;;;;;;;;3.75;1.50;;;;;10.01;94.63;100787.25;4803263;29;45410;-94
2023/01/12 08:39:11;;;;;;;;;2.00;0.00;;;;;9.44;93.70;100659.56;4883623;29;45369;-92
2023/01/12 08:41:39;;;;;;;;;0.50;0.50;;;;;9.67;94.48;100672.44;4890691;29;45622;-94
2023/01/12 08:44:09;;;;;;;;;1.00;0.00;;;;;10.26;94.43;100796.56;4886603;29;46729;-95
2023/01/12 08:46:50;;;;;;;;;0.00;0.00;;;;;7.58;93.69;100334.34;4883718;29;45235;-95
2023/01/12 08:49:26;;;;;;;;;1.25;0.50;;;;;9.22;94.02;100601.81;4901269;29;45293;-95
2023/01/12 08:51:53;;;;;;;;;0.00;0.00;;;;;10.32;94.10;100798.19;4897184;29;44862;-94
2023/01/12 08:54:20;;;;;;;;;0.00;0.00;;;;;8.89;94.13;100567.09;4877384;29;47139;-95
2023/01/12 08:56:48;;;;;;;;;1.00;1.00;;;;;8.63;94.20;100500.72;4880135;29;44684;-94
2023/01/12 08:59:39;;;;;;;;;0.00;0.00;;;;;9.68;93.90;100679.44;4880670;29;45383;-93
2023/01/12 09:02:09;;;;;;;;;0.00;0.00;;;;;8.70;93.90;100513.78;4886776;29;44986;-95
2023/01/12 09:04:38;;;;;;;;;1.50;1.50;;;;;10.39;94.56;100786.69;4881764;29;45433;-94
2023/01/12 09:07:04;;;;;;;;;3.00;2.00;;;;;10.41;94.14;100795.44;4843479;29;45221;-94
2023/01/12 09:09:29;;;;;;;;;0.00;0.00;;;;;7.83;94.48;100377.03;4893252;29;45177;-96
2023/01/12 09:11:56;;;;;;;;;1.25;0.00;;;;;10.43;94.95;100822.75;4895105;29;45237;-95
2023/01/12 09:14:30;;;;;;;;;0.50;0.50;;;;;9.27;95.05;100614.09;4895265;29;48027;-96
2023/01/12 09:17:02;;;;;;;;;1.75;1.00;;;;;10.14;94.87;100757.09;4897143;29;44740;-95
2023/01/12 09:19:32;;;;;;;;;0.00;0.00;;;;;10.44;95.11;100802.47;4880100;29;44740;-95
2023/01/12 09:22:00;;;;;;;;;0.75;0.75;;;;;9.30;95.44;100619.31;4877888;29;45506;-94
2023/01/12 09:24:28;;;;;;;;;0.50;0.50;;;;;9.97;95.10;100728.28;4873849;29;46605;-94
2023/01/12 09:27:00;;;;;;;;;1.00;1.00;;;;;9.18;95.00;100609.81;4876211;29;45254;-96
2023/01/12 09:29:28;;;;;;;;;0.00;0.00;;;;;10.00;95.38;100730.88;4882892;29;45440;-96
2023/01/12 09:32:00;;;;;;;;;1.00;1.00;;;;;8.39;95.13;100486.06;4881030;29;44823;-95
2023/01/12 09:34:27;;;;;;;;;0.75;0.75;;;;;10.08;95.61;100746.63;4900045;29;45300;-95
2023/01/12 09:36:55;;;;;;;;;2.00;0.25;;;;;7.77;95.28;100355.16;4888825;29;44647;-95
2023/01/12 09:39:25;;;;;;;;;2.00;0.75;;;;;10.43;96.01;100820.09;4886793;29;45341;-94
2023/01/12 09:51:28;;;;;;;;;1.00;1.00;;;;;8.24;95.71;100440.56;5043688;23;45389;-94
2023/01/12 09:54:12;;;;;;;;;;;;;;;;;;;;;
2023/01/12 09:57:33;;;;;;;;;;;;;;;;;;;;;
2023/01/12 10:00:33;;;;;;;;;0.00;0.00;;;;;10.42;95.64;100831.56;4839165;29;72826;-95
2023/01/12 10:03:17;;;;;;;;;0.50;0.50;;;;;8.59;96.14;100494.59;4826286;29;45255;-95
2023/01/12 10:05:51;;;;;;;;;0.50;0.00;;;;;10.43;95.82;100806.88;4833626;29;44910;-96
2023/01/12 10:08:41;;;;;;;;;0.75;0.75;;;;;10.43;95.91;100806.88;4836933;29;46871;-95
2023/01/12 10:11:40;;;;;;;;;0.00;0.00;;;;;9.59;95.72;100674.31;4840456;29;44935;-95
2023/01/12 10:14:47;;;;;;;;;2.25;0.50;;;;;10.47;96.12;100805.91;4845269;29;44888;-96
2023/01/12 10:19:57;;;;;;;;;0.50;0.25;;;;;9.35;96.12;100602.53;5474929;23;46492;-96
2023/01/12 10:22:38;;;;;;;;;2.75;0.00;;;;;9.24;95.58;100601.81;4862516;29;44778;-95
2023/01/12 10:25:43;;;;;;;;;2.50;0.50;;;;;10.56;95.82;100806.69;4873531;29;45285;-95
2023/01/12 10:28:25;;;;;;;;;0.25;0.25;;;;;9.53;95.79;100637.44;4859380;29;45275;-94
2023/01/12 10:30:52;;;;;;;;;0.00;0.00;;;;;10.12;95.74;100738.63;4856276;29;47347;-94
2023/01/12 10:33:24;;;;;;;;;1.00;1.00;;;;;9.76;96.45;100663.50;4858361;29;45631;-95
2023/01/12 10:36:18;;;;;;;;;1.00;0.00;;;;;8.84;95.59;100536.44;4866917;29;44952;-95
2023/01/12 10:38:51;;;;;;;;;2.00;1.00;;;;;10.64;96.16;100796.84;4882855;29;44897;-93
2023/01/12 10:41:21;;;;;;;;;0.00;0.00;;;;;9.15;96.29;100567.66;4879615;29;45267;-95
2023/01/12 10:44:17;;;;;;;;;0.75;0.75;;;;;8.33;95.85;100418.53;4850137;29;44676;-96
2023/01/12 10:47:11;;;;;;;;;0.00;0.00;;;;;10.64;96.18;100788.91;4863583;29;45267;-95
2023/01/12 10:49:41;;;;;;;;;1.50;0.00;;;;;9.03;96.01;100530.03;4866376;29;45058;-95
2023/01/12 10:52:31;;;;;;;;;3.25;2.25;;;;;7.72;95.60;100305.22;4869151;29;47272;-95
2023/01/12 10:55:00;;;;;;;;;0.50;0.00;;;;;8.40;95.98;100422.81;4851669;29;45275;-94
2023/01/12 10:57:26;;;;;;;;;2.25;1.25;;;;;9.40;96.31;100561.13;4857194;29;44948;-95
2023/01/12 10:59:58;;;;;;;;;1.25;1.25;;;;;9.11;96.06;100522.00;4860590;29;45495;-95
2023/01/12 11:02:28;;;;;;;;;1.00;0.00;;;;;9.77;95.97;100610.66;4860236;29;46327;-94
2023/01/12 11:04:56;;;;;;;;;4.25;1.00;;;;;9.25;96.25;100543.75;4860370;29;44911;-94
2023/01/12 11:07:34;;;;;;;;;0.00;0.00;;;;;10.83;96.34;100773.63;4875099;29;44656;-95
2023/01/12 11:10:26;;;;;;;;;0.00;0.00;;;;;9.27;95.88;100537.59;4874103;29;45326;-96
2023/01/12 11:13:03;;;;;;;;;1.75;1.00;;;;;10.67;96.11;100762.44;4860292;29;46876;-95
2023/01/12 11:15:34;;;;;;;;;0.75;0.75;;;;;7.99;95.71;100277.69;4862964;29;45263;-94
2023/01/12 11:18:44;;;;;;;;;1.00;1.00;;;;;10.93;96.01;100748.75;4860498;29;45339;-94
2023/01/12 11:21:33;;;;;;;;;2.00;1.25;;;;;8.67;95.60;100370.66;4880200;29;44879;-95
2023/01/12 11:24:11;;;;;;;;;0.50;0.50;;;;;9.37;95.65;100478.53;4854571;29;46991;-96
2023/01/12 11:26:50;;;;;;;;;1.75;1.00;;;;;10.06;95.65;100596.13;4857502;29;45289;-95
2023/01/12 11:29:32;;;;;;;;;1.00;1.00;;;;;9.45;94.93;100496.88;4884960;29;44665;-94
2023/01/12 11:32:10;;;;;;;;;2.00;2.00;;;;;8.33;95.11;100282.44;4868969;29;44919;-94
2023/01/12 11:35:19;;;;;;;;;1.25;0.50;;;;;11.18;95.67;100735.06;4852625;28;46406;-94
2023/01/12 16:56:13;;;;;;;;;0.00;0.00;;;;;9.26;93.02;100183.31;4842685;29;46473;-94
2023/01/12 16:58:47;;;;;;;;;0.00;0.00;;;;;8.88;92.89;100111.13;4844144;29;45273;-93
2023/01/12 17:01:15;;;;;;;;;2.00;1.00;;;;;10.96;93.30;100501.88;4841801;29;44805;-93
2023/01/12 17:03:42;;;;;;;;;2.50;1.00;;;;;10.21;92.83;100340.53;4844522;29;45425;-96
2023/01/12 17:06:11;;;;;;;;;1.75;1.00;;;;;8.49;93.00;100066.28;4848308;29;45111;-93
2023/01/12 23:38:34;;;;;;;;;0.00;0.00;;;;;9.41;96.80;100069.59;4846308;29;44958;-93
